Aspen-Pitkin Co/Sardy Field
KASE : now visible

Airfield :











YOU CAN JOIN US ON...

 
LOGIN :

Register | Disclaimer

   EN    FR    IT 

 









Legend :    VFR   Marginal VFR   IFR   Intensive IFR   Very Intensive IFR
Visi :
Ceiling :
>= 8 km
>= 3000ft
5 to 8 km
1000 to 3000 ft
1500m to 5 km
500 to 1000 ft
800 to 1500m
200 to 500 ft
< 800m
< 200 ft
Symbols :   Thunderstorms  Fog  Heavy snow  Heavy precipitations  Wind > 20 kt






- Airport Elevation : 7820 ft


KASE - Aspen-Pitkin Co/Sardy Field

CURRENT METAR :
  • 202053Z 34010G19KT 10SM FEW110 27/M01 A3011 RMK AO2 PK WND 34030/2018 SLP069 T02671011 58006 $

EXPIRED METARs :
  • 201953Z 34011G19KT 10SM BKN100 27/01 A3012 RMK AO2 SLP069 T02670006 $
  • 201853Z 34011G29KT 10SM BKN110 27/02 A3013 RMK AO2 PK WND 33029/1847 SLP072 T02670022 $

TAF KASE
Valid from the 20 at 18:00 until the 21 at 18:00 UTC


201732Z 2018/2118 32012KT P6SM FEW100
FM201900 31014G22KT P6SM SCT100
FM210200 28006KT P6SM FEW120
FM210400 20007KT P6SM SKC
FM211600 32005KT P6SM SKC
KZDV FIR / North America



MET'MAP, your aeronautical weather chart ! - Copyright ORBIFLY December 2007 - Disclaimer

ORBIFLY MET'MAP TEAM :

Programming & Development : Alexandra Zaïnal
Concept & original design : Baudouin d'Aumeries
Assistance for programming : Marc-Olivier Méhu
Technical & hardware support : Manuel Goepfert

Contact : metmap@orbifly.com




SOURCES & CREDITS :

   NOAA       Earth
Advisory